Time;durP1;ratioP1;P1;durP2;ratioP2;P2;SDS_P1;SDS_P2;PMS_P1;PMS_P2;Temp;Humidity;BMP_temperature;BMP_pressure;BME280_temperature;BME280_humidity;BME280_pressure;Samples;Min_cycle;Max_cycle;Signal;HPM_P1;HPM_P2
2021/12/29 00:01:12;;;;;;;40.57;13.03;;;;;;;1.63;100.00;99733.06;5051582;28;20775;-73
2021/12/29 00:03:39;;;;;;;42.80;16.37;;;;;;;1.71;100.00;99736.84;5053304;28;20199;-76
2021/12/29 00:06:06;;;;;;;20.60;9.53;;;;;;;1.62;100.00;99742.41;5051833;28;20200;-77
2021/12/29 00:08:34;;;;;;;27.20;12.63;;;;;;;1.67;100.00;99745.19;5057403;28;20206;-75
2021/12/29 00:11:01;;;;;;;29.00;9.70;;;;;;;1.23;100.00;99689.53;5069164;28;20660;-74
2021/12/29 00:13:28;;;;;;;20.97;9.70;;;;;;;1.55;100.00;99749.72;5056046;28;20199;-74
2021/12/29 00:15:57;;;;;;;27.20;10.93;;;;;;;1.50;100.00;99747.84;5062936;28;20205;-76
2021/12/29 00:18:26;;;;;;;85.53;13.93;;;;;;;1.61;100.00;99737.22;5075180;28;20203;-76
2021/12/29 00:20:53;;;;;;;55.53;15.47;;;;;;;1.73;100.00;99745.44;5070340;28;20631;-75
2021/12/29 00:23:19;;;;;;;34.90;14.77;;;;;;;1.39;100.00;99687.75;5055362;28;20594;-77
2021/12/29 00:25:48;;;;;;;131.77;18.00;;;;;;;1.77;100.00;99726.88;5056487;28;20204;-79
2021/12/29 00:28:15;;;;;;;54.30;14.07;;;;;;;1.90;100.00;99757.28;5055297;28;20207;-78
2021/12/29 00:30:42;;;;;;;29.40;11.57;;;;;;;1.78;100.00;99764.41;5055456;28;20249;-74
2021/12/29 00:33:09;;;;;;;30.43;11.53;;;;;;;1.73;100.00;99771.00;5059542;28;20669;-76
2021/12/29 00:35:38;;;;;;;43.03;15.83;;;;;;;1.75;100.00;99770.25;5065001;28;20207;-77
2021/12/29 00:38:07;;;;;;;18.90;6.40;;;;;;;1.49;100.00;99758.88;5067535;28;20206;-76
2021/12/29 00:40:34;;;;;;;38.27;12.30;;;;;;;1.49;100.00;99748.66;5065259;28;20261;-75
2021/12/29 00:43:02;;;;;;;37.70;14.53;;;;;;;1.49;100.00;99720.56;5054916;28;20199;-75
2021/12/29 00:45:32;;;;;;;64.70;16.07;;;;;;;1.90;100.00;99770.06;5055225;28;20204;-78
2021/12/29 00:47:59;;;;;;;58.47;12.53;;;;;;;1.90;100.00;99772.63;5055875;28;20290;-75
2021/12/29 00:50:26;;;;;;;50.43;14.63;;;;;;;1.88;100.00;99761.47;5064542;28;20245;-74
2021/12/29 00:52:52;;;;;;;137.67;16.83;;;;;;;1.86;100.00;99763.94;5065701;28;20673;-78
2021/12/29 00:55:19;;;;;;;67.33;15.73;;;;;;;1.87;100.00;99759.69;5074357;28;20264;-75
2021/12/29 00:57:46;;;;;;;47.17;14.53;;;;;;;1.80;100.00;99778.13;5073042;28;20574;-75
2021/12/29 01:00:17;;;;;;;74.77;16.97;;;;;;;1.82;100.00;99767.16;5058210;28;20215;-75
2021/12/29 01:02:45;;;;;;;126.60;15.57;;;;;;;1.61;100.00;99770.44;5055319;28;20204;-74
2021/12/29 01:05:14;;;;;;;53.10;16.90;;;;;;;1.81;100.00;99769.66;5068203;28;20203;-79
2021/12/29 01:07:41;;;;;;;42.70;13.27;;;;;;;1.82;100.00;99769.72;5054269;28;20195;-77
2021/12/29 01:10:09;;;;;;;83.23;20.87;;;;;;;1.76;100.00;99749.00;5054695;28;20202;-76
2021/12/29 01:12:35;;;;;;;85.00;17.83;;;;;;;1.85;100.00;99758.78;5054064;28;20203;-76
2021/12/29 01:15:03;;;;;;;65.53;15.67;;;;;;;1.90;100.00;99759.84;5063596;28;20202;-76
2021/12/29 01:17:32;;;;;;;79.80;13.00;;;;;;;1.85;100.00;99751.09;5058206;28;20278;-74
2021/12/29 01:19:59;;;;;;;62.57;13.90;;;;;;;1.80;100.00;99747.47;5072513;28;20250;-74
2021/12/29 01:22:26;;;;;;;64.87;15.17;;;;;;;1.79;100.00;99761.03;5072889;28;20249;-76
2021/12/29 01:24:53;;;;;;;50.07;11.30;;;;;;;1.81;100.00;99764.56;5073935;28;20673;-75
2021/12/29 01:27:19;;;;;;;105.00;15.23;;;;;;;1.79;100.00;99767.03;5060247;28;20596;-76
2021/12/29 01:29:47;;;;;;;47.57;14.27;;;;;;;1.82;100.00;99761.19;5054145;28;20567;-75
2021/12/29 01:32:14;;;;;;;53.23;15.03;;;;;;;1.85;100.00;99753.66;5054146;28;20257;-75
2021/12/29 01:34:42;;;;;;;165.27;17.73;;;;;;;1.76;100.00;99755.78;5058640;28;20195;-78
2021/12/29 01:37:10;;;;;;;107.50;17.10;;;;;;;1.82;100.00;99766.31;5063593;28;20674;-76
2021/12/29 01:39:37;;;;;;;77.27;17.37;;;;;;;1.74;100.00;99759.97;5053586;28;20206;-78
2021/12/29 01:42:04;;;;;;;195.83;18.63;;;;;;;1.71;100.00;99772.63;5063159;28;20199;-75
2021/12/29 01:44:31;;;;;;;163.13;16.83;;;;;;;1.77;100.00;99760.09;5071900;28;20205;-78
2021/12/29 01:46:59;;;;;;;37.20;13.87;;;;;;;1.82;100.00;99761.19;5071565;28;20202;-75
2021/12/29 01:49:26;;;;;;;119.53;18.03;;;;;;;1.55;100.00;99757.41;5054513;28;20207;-75
2021/12/29 01:52:03;;;;;;;47.63;14.10;;;;;;;1.68;100.00;99763.13;5067973;28;20661;-76
2021/12/29 01:54:34;;;;;;;68.87;15.40;;;;;;;1.71;100.00;99752.19;5070621;28;20198;-75
2021/12/29 01:57:06;;;;;;;25.40;7.80;;;;;;;1.42;100.00;99749.19;5071099;28;20783;-76
2021/12/29 01:59:32;;;;;;;55.63;11.43;;;;;;;1.44;100.00;99756.91;5063155;28;20204;-74
2021/12/29 02:01:59;;;;;;;39.47;15.33;;;;;;;1.46;100.00;99740.84;5054849;28;20204;-75
2021/12/29 02:04:26;;;;;;;57.47;12.43;;;;;;;1.35;100.00;99736.94;5053400;28;20206;-78
2021/12/29 02:06:54;;;;;;;60.57;14.87;;;;;;;1.49;100.00;99729.91;5053550;28;20207;-74
2021/12/29 02:09:21;;;;;;;32.43;11.57;;;;;;;1.56;100.00;99728.50;5053638;28;20206;-76
2021/12/29 02:11:48;;;;;;;60.30;13.37;;;;;;;1.45;100.00;99734.00;5062800;28;20321;-73
2021/12/29 02:14:15;;;;;;;63.33;16.00;;;;;;;1.57;100.00;99733.66;5057940;28;20210;-75
2021/12/29 02:16:42;;;;;;;85.93;19.10;;;;;;;1.62;100.00;99724.53;5064051;28;20191;-76
2021/12/29 02:19:11;;;;;;;118.10;21.70;;;;;;;1.67;100.00;99715.41;5062966;28;20196;-76
2021/12/29 02:21:43;;;;;;;57.20;17.87;;;;;;;1.55;100.00;99709.75;5072613;28;20223;-75
2021/12/29 02:24:19;;;;;;;43.40;12.43;;;;;;;1.40;100.00;99712.47;5072563;28;20203;-75
2021/12/29 02:26:47;;;;;;;27.87;9.27;;;;;;;1.33;100.00;99720.66;5072582;28;20191;-76
2021/12/29 02:29:16;;;;;;;56.63;14.60;;;;;;;1.32;100.00;99713.81;5073003;28;20195;-75
2021/12/29 02:31:44;;;;;;;84.87;16.27;;;;;;;1.11;100.00;99687.31;5072329;28;20202;-73
2021/12/29 02:34:14;;;;;;;51.03;17.23;;;;;;;1.26;100.00;99705.88;5072722;28;20263;-73
2021/12/29 02:36:45;;;;;;;64.50;18.77;;;;;;;1.42;100.00;99693.00;5071042;28;20205;-73
2021/12/29 02:39:14;;;;;;;86.90;17.83;;;;;;;1.37;100.00;99681.69;5052544;28;20655;-77
2021/12/29 02:41:44;;;;;;;197.20;20.10;;;;;;;1.34;100.00;99680.69;5057311;28;20215;-78
2021/12/29 02:44:17;;;;;;;72.53;14.50;;;;;;;1.39;100.00;99681.78;5065756;28;20249;-79
2021/12/29 02:46:44;;;;;;;160.07;21.17;;;;;;;1.53;100.00;99674.72;5053660;28;20265;-78
2021/12/29 02:49:11;;;;;;;124.57;18.20;;;;;;;1.36;100.00;99645.88;5072651;28;20629;-75
2021/12/29 02:51:38;;;;;;;41.37;10.30;;;;;;;1.29;100.00;99669.38;5072333;28;20673;-73
2021/12/29 02:54:07;;;;;;;43.23;10.77;;;;;;;1.26;100.00;99667.56;5072641;28;20202;-78
2021/12/29 02:56:34;;;;;;;60.93;10.77;;;;;;;1.11;100.00;99664.31;5072108;28;20203;-76
2021/12/29 02:59:01;;;;;;;50.43;11.57;;;;;;;1.18;100.00;99660.41;5057617;28;20195;-73
2021/12/29 03:01:29;;;;;;;160.37;18.70;;;;;;;1.39;100.00;99667.31;5052495;28;20223;-73
2021/12/29 03:03:56;;;;;;;50.67;10.20;;;;;;;1.23;100.00;99667.44;5052217;28;20657;-75
2021/12/29 03:06:23;;;;;;;35.93;8.20;;;;;;;1.08;100.00;99664.19;5052320;28;20203;-73
2021/12/29 03:08:50;;;;;;;103.53;12.10;;;;;;;1.07;100.00;99662.44;5052695;28;20211;-77
2021/12/29 03:11:19;;;;;;;142.80;16.83;;;;;;;1.02;100.00;99637.53;5068462;28;20200;-76
2021/12/29 03:13:46;;;;;;;80.20;17.03;;;;;;;1.24;100.00;99666.66;5052317;28;20699;-72
2021/12/29 03:16:13;;;;;;;110.97;19.07;;;;;;;1.27;100.00;99664.22;5051674;28;20615;-72
2021/12/29 03:18:40;;;;;;;130.20;18.23;;;;;;;1.15;100.00;99655.13;5059778;28;20218;-78
2021/12/29 03:21:07;;;;;;;77.10;11.57;;;;;;;1.07;100.00;99654.78;5071583;28;20238;-72
2021/12/29 03:23:34;;;;;;;103.37;14.40;;;;;;;1.20;100.00;99666.44;5068558;28;21307;-77
2021/12/29 03:26:02;;;;;;;18.90;7.40;;;;;;;1.18;100.00;99660.41;5052139;28;20198;-76
2021/12/29 03:28:30;;;;;;;90.43;17.17;;;;;;;1.25;100.00;99650.50;5051760;28;20277;-75
2021/12/29 03:30:57;;;;;;;77.67;14.67;;;;;;;1.14;100.00;99653.41;5053253;28;20207;-75
2021/12/29 03:33:25;;;;;;;124.57;17.13;;;;;;;1.13;100.00;99647.41;5052045;28;20203;-75
2021/12/29 03:35:56;;;;;;;214.27;19.57;;;;;;;1.18;100.00;99651.03;5051707;28;20199;-75
2021/12/29 03:38:24;;;;;;;92.63;15.00;;;;;;;1.26;100.00;99659.91;5064041;28;20677;-75
2021/12/29 03:40:53;;;;;;;115.77;18.07;;;;;;;1.33;100.00;99656.84;5069669;28;20226;-78
2021/12/29 03:43:20;;;;;;;38.70;10.17;;;;;;;1.11;100.00;99649.00;5069931;28;20666;-73
2021/12/29 03:45:51;;;;;;;54.67;9.73;;;;;;;1.05;100.00;99653.84;5070493;28;20203;-73
2021/12/29 03:48:19;;;;;;;127.83;19.53;;;;;;;1.25;100.00;99649.66;5071150;28;20201;-77
2021/12/29 03:50:46;;;;;;;23.10;8.50;;;;;;;1.06;100.00;99653.06;5051696;28;20195;-75
2021/12/29 03:53:14;;;;;;;23.10;11.67;;;;;;;1.02;100.00;99658.81;5056166;28;20305;-74
2021/12/29 03:55:42;;;;;;;75.60;18.50;;;;;;;1.16;100.00;99662.88;5059887;28;20689;-74
2021/12/29 03:58:10;;;;;;;84.63;16.83;;;;;;;1.16;100.00;99667.97;5063463;28;20751;-75
2021/12/29 04:00:37;;;;;;;120.23;17.00;;;;;;;1.09;100.00;99663.41;5058393;28;20233;-76
2021/12/29 04:03:06;;;;;;;177.23;19.63;;;;;;;1.08;100.00;99661.63;5071795;28;20198;-76
2021/12/29 04:05:33;;;;;;;66.73;15.53;;;;;;;1.10;100.00;99666.81;5071404;28;20598;-74
2021/12/29 04:08:01;;;;;;;72.77;13.00;;;;;;;1.21;100.00;99666.50;5066583;28;20939;-76
2021/12/29 04:10:29;;;;;;;62.63;14.90;;;;;;;1.20;100.00;99666.44;5051838;28;20206;-73
2021/12/29 04:12:56;;;;;;;63.50;13.30;;;;;;;1.05;100.00;99658.06;5069755;28;20214;-72
2021/12/29 04:15:24;;;;;;;109.37;18.73;;;;;;;1.15;100.00;99655.13;5055924;28;20199;-74
2021/12/29 04:17:57;;;;;;;43.03;9.63;;;;;;;1.08;100.00;99659.09;5051300;28;20203;-72
2021/12/29 04:23:14;;;;;;;88.13;18.20;;;;;;;1.12;100.00;99655.88;5069847;28;20241;-75
2021/12/29 04:25:45;;;;;;;92.30;17.90;;;;;;;1.21;100.00;99655.44;5053606;28;20203;-76
2021/12/29 04:28:16;;;;;;;99.87;19.77;;;;;;;0.87;100.00;99635.16;5051311;28;20196;-78
2021/12/29 04:30:44;;;;;;;58.80;11.70;;;;;;;0.97;100.00;99661.16;5050995;28;20275;-75
2021/12/29 04:33:10;;;;;;;119.77;18.23;;;;;;;1.00;100.00;99657.84;5056238;28;20202;-74
2021/12/29 04:35:39;;;;;;;31.97;10.80;;;;;;;0.80;100.00;99661.19;5051763;28;20195;-76
2021/12/29 04:38:06;;;;;;;182.07;21.53;;;;;;;0.73;100.00;99656.59;5050260;28;20227;-77
2021/12/29 04:40:33;;;;;;;73.10;13.60;;;;;;;0.68;100.00;99655.53;5051795;28;20199;-78
2021/12/29 04:43:00;;;;;;;177.70;18.70;;;;;;;0.69;100.00;99657.25;5052624;28;20199;-75
2021/12/29 04:45:28;;;;;;;82.33;13.17;;;;;;;0.70;100.00;99659.88;5049142;28;20203;-76
2021/12/29 04:47:54;;;;;;;89.77;20.43;;;;;;;0.77;100.00;99655.94;5059532;28;20195;-78
2021/12/29 04:50:28;;;;;;;63.53;17.70;;;;;;;0.83;100.00;99654.53;5051160;28;20199;-76
2021/12/29 04:52:59;;;;;;;26.83;9.77;;;;;;;0.72;100.00;99654.84;5054891;28;20196;-74
2021/12/29 04:55:26;;;;;;;181.33;18.73;;;;;;;0.65;100.00;99652.81;5052490;28;20204;-77
2021/12/29 04:57:53;;;;;;;155.40;20.83;;;;;;;0.61;100.00;99633.94;5054712;28;20192;-76
2021/12/29 05:00:23;;;;;;;123.43;19.93;;;;;;;0.73;100.00;99648.94;5054423;28;20261;-74
2021/12/29 05:02:51;;;;;;;85.93;13.80;;;;;;;0.68;100.00;99642.78;5054315;28;20596;-74
2021/12/29 05:05:22;;;;;;;75.93;14.47;;;;;;;0.67;100.00;99649.53;5054894;28;20206;-78
2021/12/29 05:10:35;;;;;;;227.13;30.77;;;;;;;0.86;100.00;99635.94;5071526;28;20205;-76
2021/12/29 05:13:02;;;;;;;191.57;29.93;;;;;;;0.89;100.00;99631.00;5074007;28;20202;-74
2021/12/29 05:15:29;;;;;;;91.33;23.33;;;;;;;1.03;100.00;99635.06;5074102;28;20206;-74
2021/12/29 05:17:58;;;;;;;68.27;16.77;;;;;;;0.37;100.00;99562.28;5074417;28;20198;-74
2021/12/29 05:20:26;;;;;;;87.83;20.47;;;;;;;0.85;100.00;99629.13;5056640;28;20227;-74
2021/12/29 05:22:53;;;;;;;111.37;20.23;;;;;;;0.77;100.00;99620.22;5054603;28;20238;-75
2021/12/29 05:25:19;;;;;;;232.90;30.20;;;;;;;0.79;100.00;99619.47;5056717;28;20202;-75
2021/12/29 05:27:48;;;;;;;91.63;17.77;;;;;;;0.67;100.00;99615.50;5074163;28;20194;-73
2021/12/29 05:30:15;;;;;;;46.70;15.23;;;;;;;0.56;100.00;99612.47;5063149;28;20204;-73
2021/12/29 05:32:41;;;;;;;20.20;9.37;;;;;;;0.50;100.00;99607.94;5053882;28;20204;-73
2021/12/29 05:35:09;;;;;;;60.60;11.50;;;;;;;0.41;100.00;99610.06;5053704;28;20605;-73
2021/12/29 05:37:36;;;;;;;55.77;13.20;;;;;;;0.39;100.00;99611.66;5054273;28;20203;-73
2021/12/29 05:40:04;;;;;;;27.27;12.30;;;;;;;0.37;100.00;99607.28;5053800;28;20199;-77
2021/12/29 05:42:33;;;;;;;45.70;14.37;;;;;;;0.51;100.00;99616.47;5062199;28;20226;-73
2021/12/29 05:45:02;;;;;;;25.77;11.03;;;;;;;0.45;100.00;99606.88;5059633;28;20206;-74
2021/12/29 05:47:28;;;;;;;119.00;26.07;;;;;;;-0.05;100.00;99534.78;5065326;28;20203;-75
2021/12/29 05:49:55;;;;;;;149.73;21.53;;;;;;;0.54;100.00;99621.69;5068414;28;20203;-76
2021/12/29 05:52:22;;;;;;;196.37;30.43;;;;;;;0.60;100.00;99616.91;5066446;28;20218;-73
2021/12/29 05:54:49;;;;;;;99.77;21.73;;;;;;;0.71;100.00;99614.84;5068830;28;20196;-74
2021/12/29 05:57:16;;;;;;;164.27;33.80;;;;;;;0.69;100.00;99611.34;5056193;28;20202;-72
2021/12/29 05:59:43;;;;;;;100.63;26.07;;;;;;;0.83;100.00;99620.50;5071407;28;20657;-74
2021/12/29 06:02:11;;;;;;;179.33;32.60;;;;;;;0.99;100.00;99605.09;5053377;28;20227;-75
2021/12/29 06:04:38;;;;;;;84.60;17.13;;;;;;;0.69;100.00;99616.44;5053340;28;20250;-74
2021/12/29 06:07:05;;;;;;;210.37;33.40;;;;;;;0.90;100.00;99619.97;5065455;28;20572;-71
2021/12/29 06:09:32;;;;;;;56.33;17.70;;;;;;;0.88;100.00;99619.91;5062699;28;20203;-74
2021/12/29 06:11:58;;;;;;;123.17;28.10;;;;;;;0.82;100.00;99619.63;5068122;28;20626;-73
2021/12/29 06:14:25;;;;;;;135.53;16.90;;;;;;;1.03;100.00;99614.63;5073325;28;20207;-71
2021/12/29 06:16:52;;;;;;;130.87;33.70;;;;;;;1.18;100.00;99614.44;5072644;28;20574;-74
2021/12/29 06:19:20;;;;;;;280.77;36.97;;;;;;;1.17;100.00;99621.22;5065418;28;20293;-73
2021/12/29 06:21:47;;;;;;;146.70;32.13;;;;;;;1.21;100.00;99625.66;5050785;28;20239;-75
2021/12/29 06:24:14;;;;;;;87.20;22.60;;;;;;;0.98;100.00;99636.50;5053046;28;20203;-74
2021/12/29 06:26:41;;;;;;;129.83;26.13;;;;;;;0.97;100.00;99642.41;5073493;28;20198;-74
2021/12/29 06:29:07;;;;;;;87.23;25.40;;;;;;;0.82;100.00;99657.88;5073119;28;20229;-73
2021/12/29 06:31:34;;;;;;;67.63;15.77;;;;;;;0.72;100.00;99662.50;5066872;28;20258;-76
2021/12/29 06:34:02;;;;;;;192.07;32.70;;;;;;;0.98;100.00;99669.69;5052632;28;20674;-74
2021/12/29 06:36:30;;;;;;;188.90;32.00;;;;;;;1.11;100.00;99674.53;5053065;28;20210;-75
2021/12/29 06:38:57;;;;;;;99.17;28.10;;;;;;;1.13;100.00;99680.59;5066684;28;20249;-75
2021/12/29 06:41:24;;;;;;;166.77;29.47;;;;;;;0.93;100.00;99676.25;5072456;28;20223;-72
2021/12/29 06:43:51;;;;;;;129.10;30.40;;;;;;;1.10;100.00;99677.91;5067043;28;20203;-73
2021/12/29 06:46:18;;;;;;;354.73;38.17;;;;;;;1.07;100.00;99682.84;5051732;28;20203;-70
2021/12/29 06:48:44;;;;;;;152.13;32.33;;;;;;;1.24;100.00;99671.75;5052697;28;20202;-74
2021/12/29 06:51:11;;;;;;;107.13;22.30;;;;;;;1.08;100.00;99664.19;5052611;28;20206;-73
2021/12/29 06:53:39;;;;;;;213.73;34.13;;;;;;;1.22;100.00;99688.66;5052292;28;20200;-76
2021/12/29 06:56:06;;;;;;;139.40;34.63;;;;;;;1.31;100.00;99686.53;5052197;28;20199;-74
2021/12/29 06:58:33;;;;;;;140.57;33.17;;;;;;;0.73;100.00;99610.69;5052463;28;20404;-73
2021/12/29 07:01:00;;;;;;;105.80;30.17;;;;;;;1.12;100.00;99694.16;5052794;28;20597;-75
2021/12/29 07:03:27;;;;;;;121.73;33.30;;;;;;;1.28;100.00;99699.19;5052146;28;20203;-77
2021/12/29 07:05:54;;;;;;;137.03;30.73;;;;;;;1.39;100.00;99697.94;5052549;28;20207;-74
2021/12/29 07:08:21;;;;;;;99.73;25.23;;;;;;;1.17;100.00;99685.06;5052002;28;20238;-76
2021/12/29 07:10:50;;;;;;;119.77;30.87;;;;;;;1.10;100.00;99693.22;5051762;28;20203;-71
2021/12/29 07:13:16;;;;;;;184.20;29.60;;;;;;;1.06;100.00;99677.69;5052680;28;20665;-77
2021/12/29 07:15:43;;;;;;;143.17;32.70;;;;;;;1.52;100.00;99611.66;5051888;28;20198;-74
2021/12/29 07:18:10;;;;;;;129.20;30.37;;;;;;;1.74;100.00;99680.75;5052204;28;20199;-75
2021/12/29 07:20:38;;;;;;;144.60;29.43;;;;;;;1.70;100.00;99678.88;5051032;28;20235;-75
2021/12/29 07:23:05;;;;;;;152.40;28.00;;;;;;;1.49;100.00;99679.69;5051923;28;20223;-73
2021/12/29 07:25:32;;;;;;;143.93;31.20;;;;;;;1.38;100.00;99683.47;5052054;28;20222;-74
2021/12/29 07:28:00;;;;;;;256.33;35.13;;;;;;;1.39;100.00;99692.84;5051879;28;20257;-74
2021/12/29 07:30:27;;;;;;;81.00;19.20;;;;;;;1.20;100.00;99674.09;5051701;28;20239;-76
2021/12/29 07:32:54;;;;;;;113.53;26.57;;;;;;;1.23;100.00;99684.44;5052088;28;20585;-73
2021/12/29 07:35:21;;;;;;;113.73;27.13;;;;;;;1.00;100.00;99663.84;5051963;28;20206;-74
2021/12/29 07:37:49;;;;;;;138.33;33.37;;;;;;;1.79;100.00;99684.38;5051689;28;20208;-73
2021/12/29 07:40:16;;;;;;;115.83;30.10;;;;;;;1.73;100.00;99681.56;5035971;28;20208;-72
2021/12/29 07:42:44;;;;;;;99.67;25.47;;;;;;;1.56;100.00;99690.19;5031603;28;20270;-72
2021/12/29 07:45:13;;;;;;;131.80;27.83;;;;;;;0.94;100.00;99604.88;5031917;28;20283;-74
2021/12/29 07:47:46;;;;;;;122.27;28.40;;;;;;;1.30;100.00;99683.91;5032088;28;20204;-72
2021/12/29 07:50:13;;;;;;;88.83;25.80;;;;;;;1.33;100.00;99682.38;5032022;28;20203;-74
2021/12/29 07:52:40;;;;;;;174.13;30.50;;;;;;;1.30;100.00;99686.47;5031747;28;20224;-72
2021/12/29 07:55:08;;;;;;;138.20;30.13;;;;;;;1.40;100.00;99709.03;5031816;28;20200;-76
2021/12/29 07:57:35;;;;;;;110.03;28.60;;;;;;;1.31;100.00;99706.09;5031710;28;20200;-76
2021/12/29 08:00:02;;;;;;;100.30;29.00;;;;;;;1.38;100.00;99700.47;5039600;28;20253;-75
2021/12/29 08:02:30;;;;;;;108.47;29.00;;;;;;;1.38;100.00;99683.47;5051220;28;20745;-74
2021/12/29 08:04:58;;;;;;;109.33;32.57;;;;;;;1.58;100.00;99709.00;5051521;28;20207;-79
2021/12/29 08:07:25;;;;;;;109.93;31.00;;;;;;;1.62;100.00;99731.31;5051626;28;20294;-75
2021/12/29 08:09:52;;;;;;;106.50;29.13;;;;;;;2.01;100.00;99727.94;5051681;28;20253;-72
2021/12/29 08:12:19;;;;;;;155.57;39.30;;;;;;;2.81;100.00;99728.75;5051294;28;20192;-77
2021/12/29 08:14:47;;;;;;;114.83;34.77;;;;;;;2.84;100.00;99687.91;5051688;28;20206;-76
2021/12/29 08:17:14;;;;;;;102.20;32.73;;;;;;;2.71;100.00;99683.09;5050753;28;20283;-76
2021/12/29 08:19:44;;;;;;;100.57;32.60;;;;;;;2.64;100.00;99727.19;5051495;28;20223;-79
2021/12/29 08:22:11;;;;;;;105.33;30.70;;;;;;;2.59;100.00;99728.69;5050688;28;20231;-78
2021/12/29 08:24:38;;;;;;;85.77;26.30;;;;;;;2.06;100.00;99731.59;5048381;28;20211;-76
2021/12/29 08:27:05;;;;;;;77.97;24.80;;;;;;;1.98;100.00;99727.81;5051516;28;20211;-76
2021/12/29 08:29:32;;;;;;;91.80;29.23;;;;;;;2.00;100.00;99726.19;5051203;28;20199;-75
2021/12/29 08:31:59;;;;;;;72.70;24.67;;;;;;;1.78;100.00;99724.41;5052422;28;20203;-78
2021/12/29 08:34:26;;;;;;;56.60;20.23;;;;;;;1.30;100.00;99728.19;5055262;28;20586;-78
2021/12/29 08:36:54;;;;;;;70.50;25.30;;;;;;;1.59;100.00;99731.19;5054972;28;20636;-79
2021/12/29 08:39:22;;;;;;;71.83;25.17;;;;;;;1.49;100.00;99728.22;5055181;28;20199;-77
2021/12/29 08:41:50;;;;;;;50.10;16.80;;;;;;;1.98;100.00;99713.34;5055070;28;20199;-79
2021/12/29 08:44:17;;;;;;;59.07;22.77;;;;;;;1.75;100.00;99708.06;5054993;28;20199;-76
2021/12/29 08:46:45;;;;;;;32.30;13.30;;;;;;;1.50;100.00;99706.09;5054159;28;20195;-75
2021/12/29 08:49:12;;;;;;;78.33;27.03;;;;;;;1.56;100.00;99692.72;5054983;28;20195;-75
2021/12/29 08:51:38;;;;;;;66.23;26.00;;;;;;;1.66;100.00;99697.44;5054998;28;20686;-76
2021/12/29 08:54:07;;;;;;;85.37;25.23;;;;;;;1.63;100.00;99700.75;5054483;28;20584;-76
2021/12/29 08:56:34;;;;;;;92.27;26.33;;;;;;;1.50;100.00;99695.88;5054855;28;20210;-78
2021/12/29 08:59:01;;;;;;;66.40;21.90;;;;;;;2.04;100.00;99689.72;5054804;28;20199;-75
2021/12/29 09:01:28;;;;;;;71.40;24.23;;;;;;;1.61;100.00;99678.47;5054481;28;20195;-76
2021/12/29 09:03:55;;;;;;;79.43;25.07;;;;;;;2.00;100.00;99665.72;5052746;28;20234;-76
2021/12/29 09:06:22;;;;;;;101.03;26.53;;;;;;;1.85;100.00;99671.88;5033938;28;20200;-77
2021/12/29 09:08:49;;;;;;;41.57;16.90;;;;;;;1.45;100.00;99682.03;5033834;28;20215;-76
2021/12/29 09:11:17;;;;;;;74.67;22.63;;;;;;;1.53;100.00;99677.28;5033851;28;20675;-77
2021/12/29 09:13:44;;;;;;;86.37;24.63;;;;;;;1.57;100.00;99684.28;5034093;28;20207;-78
2021/12/29 09:16:11;;;;;;;82.50;25.50;;;;;;;1.39;100.00;99639.22;5033676;28;20212;-78
2021/12/29 09:18:39;;;;;;;75.93;27.13;;;;;;;1.63;100.00;99687.09;5034196;28;20203;-77
2021/12/29 09:21:12;;;;;;;65.53;21.90;;;;;;;1.49;100.00;99689.91;5034125;28;20565;-75
2021/12/29 09:23:40;;;;;;;69.50;20.87;;;;;;;1.74;100.00;99680.75;5034319;28;20225;-75
2021/12/29 09:26:10;;;;;;;47.87;15.57;;;;;;;1.36;100.00;99664.63;5034228;28;20207;-76
2021/12/29 09:28:39;;;;;;;92.33;33.70;;;;;;;1.35;100.00;99670.56;5034135;28;20196;-78
2021/12/29 09:31:06;;;;;;;73.43;23.67;;;;;;;1.13;100.00;99604.03;5034312;28;20222;-78
2021/12/29 09:33:33;;;;;;;62.70;18.43;;;;;;;1.25;100.00;99647.09;5034248;28;20204;-78
2021/12/29 09:36:02;;;;;;;29.07;13.70;;;;;;;0.91;100.00;99589.44;5034254;28;20200;-77
2021/12/29 09:38:31;;;;;;;52.63;20.50;;;;;;;1.03;100.00;99609.53;5033764;28;20196;-76
2021/12/29 09:40:59;;;;;;;97.00;25.53;;;;;;;1.21;100.00;99661.41;5034163;28;20199;-76
2021/12/29 09:43:26;;;;;;;100.87;21.73;;;;;;;1.08;100.00;99633.56;5033165;28;20228;-77
2021/12/29 09:45:54;;;;;;;90.90;22.47;;;;;;;1.20;100.00;99643.47;5032868;28;20196;-76
2021/12/29 09:48:22;;;;;;;127.40;27.13;;;;;;;1.35;100.00;99639.91;5049419;28;20208;-76
2021/12/29 09:50:51;;;;;;;128.43;25.83;;;;;;;1.42;100.00;99633.38;5052320;28;20200;-78
2021/12/29 09:53:19;;;;;;;96.90;28.23;;;;;;;1.63;100.00;99625.78;5052273;28;20619;-78
2021/12/29 09:55:46;;;;;;;127.43;30.50;;;;;;;1.61;100.00;99617.16;5051845;28;20678;-78
2021/12/29 09:58:15;;;;;;;52.10;15.13;;;;;;;1.39;100.00;99607.72;5051887;28;20203;-78
2021/12/29 10:00:44;;;;;;;106.23;26.90;;;;;;;1.53;100.00;99618.53;5052561;28;20227;-76
2021/12/29 10:03:15;;;;;;;58.03;21.20;;;;;;;1.42;100.00;99628.28;5053568;28;20234;-76
2021/12/29 10:05:45;;;;;;;118.93;29.13;;;;;;;1.48;100.00;99634.53;5053135;28;20195;-77
2021/12/29 10:08:13;;;;;;;237.90;33.47;;;;;;;1.46;100.00;99608.03;5053296;28;20204;-76
2021/12/29 10:10:44;;;;;;;175.73;25.73;;;;;;;1.50;100.00;99630.34;5053160;28;20203;-77
2021/12/29 10:13:11;;;;;;;60.47;17.10;;;;;;;1.50;100.00;99630.34;5053434;28;20302;-76
2021/12/29 10:15:40;;;;;;;162.67;31.33;;;;;;;1.68;100.00;99630.25;5052676;28;20199;-76
2021/12/29 10:18:10;;;;;;;196.70;29.93;;;;;;;1.42;100.00;99587.41;5053313;28;20203;-76
2021/12/29 10:20:48;;;;;;;109.50;29.57;;;;;;;1.78;100.00;99628.97;5052999;28;20250;-76
2021/12/29 10:23:24;;;;;;;77.33;23.80;;;;;;;1.79;100.00;99623.03;5052641;28;20229;-78
2021/12/29 10:25:51;;;;;;;224.83;29.63;;;;;;;1.79;100.00;99623.03;5053261;28;20203;-77
2021/12/29 10:28:26;;;;;;;120.67;27.60;;;;;;;1.81;100.00;99612.09;5049654;28;20692;-78
2021/12/29 10:31:03;;;;;;;128.67;28.27;;;;;;;1.96;100.00;99616.97;5039661;28;20206;-77
2021/12/29 10:33:35;;;;;;;107.53;27.73;;;;;;;2.00;100.00;99613.69;5043590;28;20214;-79
2021/12/29 10:36:19;;;;;;;195.40;26.40;;;;;;;2.00;100.00;99626.50;5037215;28;20208;-77
2021/12/29 10:38:47;;;;;;;88.50;25.53;;;;;;;1.93;100.00;99627.03;5034435;28;20207;-76
2021/12/29 10:41:14;;;;;;;55.77;17.83;;;;;;;1.84;100.00;99622.44;5036367;28;20208;-79
2021/12/29 10:43:51;;;;;;;57.60;21.67;;;;;;;1.80;100.00;99614.56;5032091;28;20440;-76
2021/12/29 10:46:20;;;;;;;62.53;21.13;;;;;;;1.67;100.00;99625.09;5029329;28;20192;-76
2021/12/29 10:48:49;;;;;;;79.47;27.20;;;;;;;1.80;100.00;99609.47;5030165;28;20250;-76
2021/12/29 10:51:18;;;;;;;130.23;23.27;;;;;;;1.72;100.00;99616.81;5029620;28;20273;-76
2021/12/29 10:53:46;;;;;;;38.43;15.87;;;;;;;1.43;100.00;99612.13;5028962;28;20246;-76
2021/12/29 10:56:22;;;;;;;154.43;26.70;;;;;;;1.30;100.00;99584.31;5029578;28;20207;-76
2021/12/29 10:58:49;;;;;;;82.00;25.00;;;;;;;1.58;100.00;99597.47;5030634;28;20203;-75
2021/12/29 11:01:16;;;;;;;60.00;20.93;;;;;;;1.81;100.00;99599.31;5042802;28;20195;-76
2021/12/29 11:03:46;;;;;;;99.67;23.93;;;;;;;1.68;100.00;99601.28;5050538;28;20659;-76
2021/12/29 11:06:16;;;;;;;134.93;21.70;;;;;;;1.69;100.00;99591.13;5051105;28;20253;-77
2021/12/29 11:08:49;;;;;;;81.37;22.13;;;;;;;1.65;100.00;99583.25;5052198;28;20199;-77
2021/12/29 11:11:17;;;;;;;83.13;23.50;;;;;;;1.81;100.00;99560.09;5052024;28;20203;-77
2021/12/29 11:13:45;;;;;;;62.43;20.97;;;;;;;1.29;100.00;99499.19;5052286;28;20196;-79
2021/12/29 11:16:12;;;;;;;42.77;17.83;;;;;;;1.57;100.00;99565.06;5051555;28;20265;-78
2021/12/29 11:18:45;;;;;;;153.93;25.80;;;;;;;1.67;100.00;99581.66;5052173;28;20655;-79
2021/12/29 11:21:15;;;;;;;142.60;26.33;;;;;;;1.69;100.00;99580.03;5051772;28;20246;-74
2021/12/29 11:23:43;;;;;;;30.50;10.20;;;;;;;1.65;100.00;99593.47;5052107;28;20246;-75